^^
Meteo Knjazevac Station Historical Data
Daily Summary for August 18, 2021 Units:  Metric    English   Both
Daily Weekly Monthly Yearly Custom
  High: Low: Average:
Temperature: 20.1 °C 17.2 °C 18.3 °C
Dew Point: 18.8 °C 17 °C 17.7 °C
Humidity: 99% 90% 96%
Wind Speed: 4.8km/h 0km/h 1.1km/h
Wind Gust: 11.3km/h - -
Wind- - SW
Pressure: 1012.1 hPa 1011.7 hPa -
Precipitation: 0 mm    
Historical Graphs
 
 
Tabular Data for August 18, 2021
Time Temperature Dew Point Pressure Wind Wind Speed Wind Gust Humidity Rainfall Rate (Hourly) solar Conditions
00:00 20.1 °C 18.4 °C 1012.1 hPa SW 4.8 km/h 11.3 km/h 90% 0 mm 0 W/m2
00:10 20.1 °C 18.4 °C 1012.1 hPa SW 3.2 km/h 9.7 km/h 90% 0 mm 0 W/m2
00:20 20 °C 18.3 °C 1012.1 hPa SW 3.2 km/h 8 km/h 90% 0 mm 0 W/m2
00:30 19.9 °C 18.4 °C 1011.7 hPa South 3.2 km/h 9.7 km/h 91% 0 mm 0 W/m2
00:40 19.7 °C 18.2 °C 1011.7 hPa SSW 3.2 km/h 8 km/h 91% 0 mm 0 W/m2
00:50 19.6 °C 18.1 °C 1011.7 hPa South 1.6 km/h 4.8 km/h 91% 0 mm 0 W/m2
01:00 19.5 °C 18.3 °C 1011.7 hPa SW 1.6 km/h 3.2 km/h 93% 0 mm 0 W/m2
01:10 19.4 °C 18.2 °C 1011.7 hPa SSE 1.6 km/h 6.4 km/h 93% 0 mm 0 W/m2
01:20 19.3 °C 18.2 °C 1011.7 hPa Calm   4.8 km/h 93% 0 mm 0 W/m2
01:30 19.1 °C 18.2 °C 1011.7 hPa SW 1.6 km/h 8 km/h 94% 0 mm 0 W/m2
01:40 19.1 °C 18.1 °C 1011.7 hPa SW 3.2 km/h 8 km/h 94% 0 mm 0 W/m2
01:50 19 °C 18 °C 1011.7 hPa WSW 3.2 km/h 4.8 km/h 94% 0 mm 0 W/m2
02:00 18.9 °C 17.9 °C 1011.7 hPa SW 1.6 km/h 4.8 km/h 94% 0 mm 0 W/m2
02:10 18.9 °C 18.1 °C 1011.7 hPa Calm   3.2 km/h 95% 0 mm 0 W/m2
02:20 18.8 °C 18 °C 1011.7 hPa SSW 1.6 km/h 4.8 km/h 95% 0 mm 0 W/m2
02:30 18.7 °C 17.9 °C 1011.7 hPa SW 1.6 km/h 3.2 km/h 95% 0 mm 0 W/m2
02:40 18.6 °C 17.8 °C 1011.7 hPa South 1.6 km/h 4.8 km/h 95% 0 mm 0 W/m2
02:50 18.4 °C 17.6 °C 1011.7 hPa Calm   6.4 km/h 95% 0 mm 0 W/m2
03:00 18.4 °C 17.6 °C 1011.7 hPa SSW 1.6 km/h 3.2 km/h 95% 0 mm 0 W/m2
03:10 18.3 °C 17.7 °C 1011.7 hPa SW 1.6 km/h 3.2 km/h 96% 0 mm 0 W/m2
03:20 18.2 °C 17.6 °C 1011.7 hPa Calm   3.2 km/h 96% 0 mm 0 W/m2
03:30 18.1 °C 17.4 °C 1011.7 hPa SSW 1.6 km/h 3.2 km/h 96% 0 mm 0 W/m2
03:40 18 °C 17.3 °C 1011.7 hPa SW 1.6 km/h 4.8 km/h 96% 0 mm 0 W/m2
03:50 17.9 °C 17.3 °C 1011.7 hPa Calm   3.2 km/h 96% 0 mm 0 W/m2
04:00 17.8 °C 17.2 °C 1011.7 hPa Calm   3.2 km/h 96% 0 mm 0 W/m2
04:10 17.7 °C 17.1 °C 1011.7 hPa Calm   1.6 km/h 96% 0 mm 0 W/m2
04:20 17.7 °C 17.1 °C 1011.7 hPa Calm   3.2 km/h 96% 0 mm 0 W/m2
04:30 17.6 °C 17.3 °C 1011.7 hPa SW 1.6 km/h 3.2 km/h 98% 0 mm 0 W/m2
04:40 17.5 °C 17.2 °C 1011.7 hPa Calm   3.2 km/h 98% 0 mm 0 W/m2
04:50 17.6 °C 17.3 °C 1011.7 hPa Calm   3.2 km/h 98% 0 mm 0 W/m2
05:00 17.6 °C 17.2 °C 1011.7 hPa WNW 1.6 km/h 3.2 km/h 98% 0 mm 0 W/m2
05:10 17.5 °C 17.2 °C 1011.7 hPa West 1.6 km/h 3.2 km/h 98% 0 mm 5 W/m2
05:20 17.4 °C 17.1 °C 1012.1 hPa SW 1.6 km/h 3.2 km/h 98% 0 mm 11 W/m2
05:30 17.3 °C 17 °C 1012.1 hPa SSW 1.6 km/h 3.2 km/h 98% 0 mm 20 W/m2
05:40 17.3 °C 17 °C 1012.1 hPa SW 1.6 km/h 3.2 km/h 98% 0 mm 30 W/m2
05:50 17.3 °C 17 °C 1012.1 hPa Calm   3.2 km/h 98% 0 mm 40 W/m2
06:00 17.2 °C 17.1 °C 1012.1 hPa Calm   3.2 km/h 99% 0 mm 52 W/m2
06:10 17.2 °C 17.1 °C 1012.1 hPa Calm   3.2 km/h 99% 0 mm 67 W/m2
06:20 17.2 °C 17.1 °C 1012.1 hPa Calm   1.6 km/h 99% 0 mm 81 W/m2
06:30 17.3 °C 17.2 °C 1012.1 hPa Calm   3.2 km/h 99% 0 mm 132 W/m2
06:40 17.3 °C 17.2 °C 1012.1 hPa Calm   3.2 km/h 99% 0 mm 162 W/m2
06:50 17.4 °C 17.2 °C 1012.1 hPa Calm   3.2 km/h 99% 0 mm 185 W/m2
07:00 17.5 °C 17.3 °C 1012.1 hPa NW 1.6 km/h 3.2 km/h 99% 0 mm 216 W/m2
07:10 17.6 °C 17.4 °C 1012.1 hPa Calm   3.2 km/h 99% 0 mm 245 W/m2
07:20 17.9 °C 17.7 °C 1012.1 hPa Calm   3.2 km/h 99% 0 mm 277 W/m2
07:30 18.1 °C 17.9 °C 1012.1 hPa Calm   4.8 km/h 99% 0 mm 310 W/m2
07:40 18.3 °C 18.2 °C 1012.1 hPa NW 1.6 km/h 6.4 km/h 99% 0 mm 342 W/m2
07:50 18.6 °C 18.4 °C 1012.1 hPa North 1.6 km/h 4.8 km/h 99% 0 mm 382 W/m2
08:00 18.8 °C 18.5 °C 1012.1 hPa Calm   4.8 km/h 98% 0 mm 418 W/m2
08:10 19.2 °C 18.8 °C 1012.1 hPa South 1.6 km/h 6.4 km/h 98% 0 mm 464 W/m2
Knjazevac, Serbia
Compliments of Weather Underground - 2 mb